map of LBG home
LBG - Airport
Location
City:  Paris, Īle-de-France, France
Name:Le Bourget
ICAO:LFPB
IATA:LBG

Details
Type:Airport (Aerodrome, Airfield)
Use:Public/Civil, International (customs port of entry)
Latitude:48°58'10"N (48.969444)
Longitude:2°26'29"E (2.441389)
Elevation:217 ft (66 m)
Variation:0.63°E (WMM2015 magnetic declination)
0.13° annual change
Runways:3
Longest:9843 × 148 ft (3000 × 45 m), paved

Time
Time Zone:UTC+1 (DST+2)
Local Time:

Weather
METAR:LFPB 251930Z AUTO 03009KT CAVOK 00/M10 Q1023 NOSIG
TAF:LFPB 251700Z 2518/2618 06012KT CAVOK
BECMG 2605/2607 05015G25KT

Related Locations
Nearby:
Farthest:CHT: 12070 mi / 19425 km
Waitangi [Tuuta], CIT, NZ

Find:

   beyond  
but within

Other Information
Maps:
NOTAMs:
Links:
Sources:

  
flag of France
flag of Īle-de-France
flag of Paris
  

Sectional Chart

Flight Planning
at skyvector.com

Satellite Image

Google Maps Satellite view

 

Copyright © 2004-2018 Karl L. Swartz. All rights reserved.
The Great Circle Mapper name and logo are trademarks of the Great Circle Mapper.
All other trademarks mentioned herein belong to their respective owners.
Please see credits for attibutions and further copyright information.

  Follow gcmap on Facebook Follow gcmap on Twitter Follow gcmap on Google+ GCmap on LinkedIn

hCard Microformat

Geo Microformat